X  Close Metar Aviation Weather Data     EHAM Amsterdam Airport Schiphol
Temperature
8°C Temperature
8°C Dewpoint
100% Humidity



Wind
5 KM/H
3 MPH
1 M/S
3 KTS



100°
East
Current Conditions

Fog Fog
Pressure 1031.92 (hPa) - 30.47 (inHg)
Visibility 0 (mile) - 0 (km)
Airport
Airport-code EHAM

Location: Amsterdam Airport Schiphol
Distance: 32 (km)

Metar:
EHAM 080755Z 10003KT 060V130 0250 R18C/0300N R27/0450N R18R/0250N R06/0900U FG VV001 08/08 Q1032 BECMG 1200 BR BKN002

Time: 08-10-2021 09:55 CEST